sensor_id;sensor_type;location;lat;lon;timestamp;temperature;humidity
8008;DHT22;4049;49.468;11.200;2023-03-05T00:01:22;2.30;99.90
8008;DHT22;4049;49.468;11.200;2023-03-05T00:04:01;2.40;99.90
8008;DHT22;4049;49.468;11.200;2023-03-05T00:06:29;2.30;99.90
8008;DHT22;4049;49.468;11.200;2023-03-05T00:08:56;2.30;99.90
8008;DHT22;4049;49.468;11.200;2023-03-05T00:11:24;2.30;99.90
8008;DHT22;4049;49.468;11.200;2023-03-05T00:13:54;2.30;99.90
8008;DHT22;4049;49.468;11.200;2023-03-05T00:16:21;2.30;99.90
8008;DHT22;4049;49.468;11.200;2023-03-05T00:18:51;2.40;99.90
8008;DHT22;4049;49.468;11.200;2023-03-05T00:21:22;2.40;99.90
8008;DHT22;4049;49.468;11.200;2023-03-05T00:23:50;2.40;99.90
8008;DHT22;4049;49.468;11.200;2023-03-05T00:26:20;2.40;99.90
8008;DHT22;4049;49.468;11.200;2023-03-05T00:28:48;2.30;99.90
8008;DHT22;4049;49.468;11.200;2023-03-05T00:31:16;2.30;99.90
8008;DHT22;4049;49.468;11.200;2023-03-05T00:33:43;2.30;99.90
8008;DHT22;4049;49.468;11.200;2023-03-05T00:36:10;2.30;99.90
8008;DHT22;4049;49.468;11.200;2023-03-05T00:38:39;2.30;99.90
8008;DHT22;4049;49.468;11.200;2023-03-05T00:41:05;2.30;99.90
8008;DHT22;4049;49.468;11.200;2023-03-05T00:43:33;2.30;99.90
8008;DHT22;4049;49.468;11.200;2023-03-05T00:46:00;2.30;99.90
8008;DHT22;4049;49.468;11.200;2023-03-05T00:48:27;2.30;99.90
8008;DHT22;4049;49.468;11.200;2023-03-05T00:50:54;2.30;99.90
8008;DHT22;4049;49.468;11.200;2023-03-05T00:53:21;2.30;99.90
8008;DHT22;4049;49.468;11.200;2023-03-05T00:55:49;2.30;99.90
8008;DHT22;4049;49.468;11.200;2023-03-05T00:58:16;2.30;99.90
8008;DHT22;4049;49.468;11.200;2023-03-05T01:00:43;2.30;99.90
8008;DHT22;4049;49.468;11.200;2023-03-05T01:03:10;2.30;99.90
8008;DHT22;4049;49.468;11.200;2023-03-05T01:05:37;2.30;99.90
8008;DHT22;4049;49.468;11.200;2023-03-05T01:08:04;2.30;99.90
8008;DHT22;4049;49.468;11.200;2023-03-05T01:10:31;2.30;99.90
8008;DHT22;4049;49.468;11.200;2023-03-05T01:13:00;2.30;99.90
8008;DHT22;4049;49.468;11.200;2023-03-05T01:15:27;2.30;99.90
8008;DHT22;4049;49.468;11.200;2023-03-05T01:17:56;2.30;99.90
8008;DHT22;4049;49.468;11.200;2023-03-05T01:20:23;2.30;99.90
8008;DHT22;4049;49.468;11.200;2023-03-05T01:22:49;2.40;99.90
8008;DHT22;4049;49.468;11.200;2023-03-05T01:25:17;2.40;99.90
8008;DHT22;4049;49.468;11.200;2023-03-05T01:27:44;2.30;99.90
8008;DHT22;4049;49.468;11.200;2023-03-05T01:30:13;2.30;99.90
8008;DHT22;4049;49.468;11.200;2023-03-05T01:32:40;2.30;99.90
8008;DHT22;4049;49.468;11.200;2023-03-05T01:35:10;2.30;99.90
8008;DHT22;4049;49.468;11.200;2023-03-05T01:37:40;2.30;99.90
8008;DHT22;4049;49.468;11.200;2023-03-05T01:40:09;2.30;99.90
8008;DHT22;4049;49.468;11.200;2023-03-05T01:42:36;2.30;99.90
8008;DHT22;4049;49.468;11.200;2023-03-05T01:45:07;2.30;99.90
8008;DHT22;4049;49.468;11.200;2023-03-05T01:47:36;2.30;99.90
8008;DHT22;4049;49.468;11.200;2023-03-05T01:50:04;2.30;99.90
8008;DHT22;4049;49.468;11.200;2023-03-05T01:52:32;2.30;99.90
8008;DHT22;4049;49.468;11.200;2023-03-05T01:55:03;2.30;99.90
8008;DHT22;4049;49.468;11.200;2023-03-05T01:57:32;2.30;99.90
8008;DHT22;4049;49.468;11.200;2023-03-05T02:00:11;2.30;99.90
8008;DHT22;4049;49.468;11.200;2023-03-05T02:02:40;2.30;99.90
8008;DHT22;4049;49.468;11.200;2023-03-05T02:05:10;2.30;99.90
8008;DHT22;4049;49.468;11.200;2023-03-05T02:07:37;2.30;99.90
8008;DHT22;4049;49.468;11.200;2023-03-05T02:10:14;2.30;99.90
8008;DHT22;4049;49.468;11.200;2023-03-05T02:12:41;2.30;99.90
8008;DHT22;4049;49.468;11.200;2023-03-05T02:15:09;2.30;99.90
8008;DHT22;4049;49.468;11.200;2023-03-05T02:17:37;2.30;99.90
8008;DHT22;4049;49.468;11.200;2023-03-05T02:20:09;2.30;99.90
8008;DHT22;4049;49.468;11.200;2023-03-05T02:22:37;2.30;99.90
8008;DHT22;4049;49.468;11.200;2023-03-05T02:25:12;2.30;99.90
8008;DHT22;4049;49.468;11.200;2023-03-05T02:27:40;2.20;99.90
8008;DHT22;4049;49.468;11.200;2023-03-05T02:30:09;2.30;99.90
8008;DHT22;4049;49.468;11.200;2023-03-05T02:32:37;2.20;99.90
8008;DHT22;4049;49.468;11.200;2023-03-05T02:35:04;2.20;99.90
8008;DHT22;4049;49.468;11.200;2023-03-05T02:37:31;2.20;99.90
8008;DHT22;4049;49.468;11.200;2023-03-05T02:39:59;2.20;99.90
8008;DHT22;4049;49.468;11.200;2023-03-05T02:42:26;2.20;99.90
8008;DHT22;4049;49.468;11.200;2023-03-05T02:44:55;2.20;99.90
8008;DHT22;4049;49.468;11.200;2023-03-05T02:47:22;2.20;99.90
8008;DHT22;4049;49.468;11.200;2023-03-05T02:49:48;2.20;99.90
8008;DHT22;4049;49.468;11.200;2023-03-05T02:52:15;2.20;99.90
8008;DHT22;4049;49.468;11.200;2023-03-05T02:54:42;2.20;99.90
8008;DHT22;4049;49.468;11.200;2023-03-05T02:57:10;2.20;99.90
8008;DHT22;4049;49.468;11.200;2023-03-05T02:59:37;2.20;99.90
8008;DHT22;4049;49.468;11.200;2023-03-05T03:02:07;2.20;99.90
8008;DHT22;4049;49.468;11.200;2023-03-05T03:04:34;2.20;99.90
8008;DHT22;4049;49.468;11.200;2023-03-05T03:07:00;2.20;99.90
8008;DHT22;4049;49.468;11.200;2023-03-05T03:09:27;2.20;99.90
8008;DHT22;4049;49.468;11.200;2023-03-05T03:11:54;2.20;99.90
8008;DHT22;4049;49.468;11.200;2023-03-05T03:14:22;2.20;99.90
8008;DHT22;4049;49.468;11.200;2023-03-05T03:16:49;2.10;99.90
8008;DHT22;4049;49.468;11.200;2023-03-05T03:19:16;2.20;99.90
8008;DHT22;4049;49.468;11.200;2023-03-05T03:21:43;2.20;99.90
8008;DHT22;4049;49.468;11.200;2023-03-05T03:24:09;2.20;99.90
8008;DHT22;4049;49.468;11.200;2023-03-05T03:26:36;2.10;99.90
8008;DHT22;4049;49.468;11.200;2023-03-05T03:29:03;2.20;99.90
8008;DHT22;4049;49.468;11.200;2023-03-05T03:31:31;2.20;99.90
8008;DHT22;4049;49.468;11.200;2023-03-05T03:33:58;2.10;99.90
8008;DHT22;4049;49.468;11.200;2023-03-05T03:36:24;2.10;99.90
8008;DHT22;4049;49.468;11.200;2023-03-05T03:38:51;2.10;99.90
8008;DHT22;4049;49.468;11.200;2023-03-05T03:41:18;2.10;99.90
8008;DHT22;4049;49.468;11.200;2023-03-05T03:43:45;2.10;99.90
8008;DHT22;4049;49.468;11.200;2023-03-05T03:46:12;2.10;99.90
8008;DHT22;4049;49.468;11.200;2023-03-05T03:48:40;2.10;99.90
8008;DHT22;4049;49.468;11.200;2023-03-05T03:51:07;2.10;99.90
8008;DHT22;4049;49.468;11.200;2023-03-05T03:53:33;2.10;99.90
8008;DHT22;4049;49.468;11.200;2023-03-05T03:56:00;2.10;99.90
8008;DHT22;4049;49.468;11.200;2023-03-05T03:58:27;2.10;99.90
8008;DHT22;4049;49.468;11.200;2023-03-05T04:00:54;2.10;99.90
8008;DHT22;4049;49.468;11.200;2023-03-05T04:03:21;2.10;99.90
8008;DHT22;4049;49.468;11.200;2023-03-05T04:05:49;2.10;99.90
8008;DHT22;4049;49.468;11.200;2023-03-05T04:08:16;2.10;99.90
8008;DHT22;4049;49.468;11.200;2023-03-05T04:10:43;2.10;99.90
8008;DHT22;4049;49.468;11.200;2023-03-05T04:13:10;2.10;99.90
8008;DHT22;4049;49.468;11.200;2023-03-05T04:15:37;2.10;99.90
8008;DHT22;4049;49.468;11.200;2023-03-05T04:18:04;2.10;99.90
8008;DHT22;4049;49.468;11.200;2023-03-05T04:20:30;2.10;99.90
8008;DHT22;4049;49.468;11.200;2023-03-05T04:22:58;2.00;99.90
8008;DHT22;4049;49.468;11.200;2023-03-05T04:25:25;2.10;99.90
8008;DHT22;4049;49.468;11.200;2023-03-05T04:27:52;2.00;99.90
8008;DHT22;4049;49.468;11.200;2023-03-05T04:30:19;2.00;99.90
8008;DHT22;4049;49.468;11.200;2023-03-05T04:32:45;2.00;99.90
8008;DHT22;4049;49.468;11.200;2023-03-05T04:35:12;2.00;99.90
8008;DHT22;4049;49.468;11.200;2023-03-05T04:37:39;2.00;99.90
8008;DHT22;4049;49.468;11.200;2023-03-05T04:40:09;2.00;99.90
8008;DHT22;4049;49.468;11.200;2023-03-05T04:42:36;2.00;99.90
8008;DHT22;4049;49.468;11.200;2023-03-05T04:45:03;2.00;99.90
8008;DHT22;4049;49.468;11.200;2023-03-05T04:47:31;2.00;99.90
8008;DHT22;4049;49.468;11.200;2023-03-05T04:49:58;2.00;99.90
8008;DHT22;4049;49.468;11.200;2023-03-05T04:52:25;2.00;99.90
8008;DHT22;4049;49.468;11.200;2023-03-05T04:54:52;1.90;99.90
8008;DHT22;4049;49.468;11.200;2023-03-05T04:57:20;2.00;99.90
8008;DHT22;4049;49.468;11.200;2023-03-05T04:59:47;2.00;99.90
8008;DHT22;4049;49.468;11.200;2023-03-05T05:02:14;2.00;99.90
8008;DHT22;4049;49.468;11.200;2023-03-05T05:04:41;2.00;99.90
8008;DHT22;4049;49.468;11.200;2023-03-05T05:07:09;2.00;99.90
8008;DHT22;4049;49.468;11.200;2023-03-05T05:09:39;2.00;99.90
8008;DHT22;4049;49.468;11.200;2023-03-05T05:12:07;2.00;99.90
8008;DHT22;4049;49.468;11.200;2023-03-05T05:14:36;1.90;99.90
8008;DHT22;4049;49.468;11.200;2023-03-05T05:17:03;1.90;99.90
8008;DHT22;4049;49.468;11.200;2023-03-05T05:19:30;2.00;99.90
8008;DHT22;4049;49.468;11.200;2023-03-05T05:21:57;2.00;99.90
8008;DHT22;4049;49.468;11.200;2023-03-05T05:24:24;2.00;99.90
8008;DHT22;4049;49.468;11.200;2023-03-05T05:26:53;2.00;99.90
8008;DHT22;4049;49.468;11.200;2023-03-05T05:29:19;1.90;99.90
8008;DHT22;4049;49.468;11.200;2023-03-05T05:31:47;2.00;99.90
8008;DHT22;4049;49.468;11.200;2023-03-05T05:34:15;1.90;99.90
8008;DHT22;4049;49.468;11.200;2023-03-05T05:36:41;1.90;99.90
8008;DHT22;4049;49.468;11.200;2023-03-05T05:39:08;1.90;99.90
8008;DHT22;4049;49.468;11.200;2023-03-05T05:41:35;1.90;99.90
8008;DHT22;4049;49.468;11.200;2023-03-05T05:44:02;2.00;99.90
8008;DHT22;4049;49.468;11.200;2023-03-05T05:46:29;1.90;99.90
8008;DHT22;4049;49.468;11.200;2023-03-05T05:48:57;1.90;99.90
8008;DHT22;4049;49.468;11.200;2023-03-05T05:51:24;2.00;99.90
8008;DHT22;4049;49.468;11.200;2023-03-05T05:53:51;2.00;99.90
8008;DHT22;4049;49.468;11.200;2023-03-05T05:56:18;2.00;99.90
8008;DHT22;4049;49.468;11.200;2023-03-05T05:58:46;2.00;99.90
8008;DHT22;4049;49.468;11.200;2023-03-05T06:01:15;2.00;99.90
8008;DHT22;4049;49.468;11.200;2023-03-05T06:03:43;2.00;99.90
8008;DHT22;4049;49.468;11.200;2023-03-05T06:06:13;2.00;99.90
8008;DHT22;4049;49.468;11.200;2023-03-05T06:08:41;2.00;99.90
8008;DHT22;4049;49.468;11.200;2023-03-05T06:11:08;2.00;99.90
8008;DHT22;4049;49.468;11.200;2023-03-05T06:13:36;2.00;99.90
8008;DHT22;4049;49.468;11.200;2023-03-05T06:16:05;2.00;99.90
8008;DHT22;4049;49.468;11.200;2023-03-05T06:18:33;2.00;99.90
8008;DHT22;4049;49.468;11.200;2023-03-05T06:21:01;2.10;99.90
8008;DHT22;4049;49.468;11.200;2023-03-05T06:23:29;2.10;99.90
8008;DHT22;4049;49.468;11.200;2023-03-05T06:25:58;2.00;99.90
8008;DHT22;4049;49.468;11.200;2023-03-05T06:28:25;2.10;99.90
8008;DHT22;4049;49.468;11.200;2023-03-05T06:30:59;2.10;99.90
8008;DHT22;4049;49.468;11.200;2023-03-05T06:33:26;2.10;99.90
8008;DHT22;4049;49.468;11.200;2023-03-05T06:35:56;2.10;99.90
8008;DHT22;4049;49.468;11.200;2023-03-05T06:38:23;2.20;99.90
8008;DHT22;4049;49.468;11.200;2023-03-05T06:40:51;2.20;99.90
8008;DHT22;4049;49.468;11.200;2023-03-05T06:43:18;2.20;99.90
8008;DHT22;4049;49.468;11.200;2023-03-05T06:45:45;2.20;99.90
8008;DHT22;4049;49.468;11.200;2023-03-05T06:48:12;2.20;99.90
8008;DHT22;4049;49.468;11.200;2023-03-05T06:50:38;2.30;99.90
8008;DHT22;4049;49.468;11.200;2023-03-05T06:53:05;2.30;99.90
8008;DHT22;4049;49.468;11.200;2023-03-05T06:55:35;2.30;99.90
8008;DHT22;4049;49.468;11.200;2023-03-05T06:58:05;2.30;99.90
8008;DHT22;4049;49.468;11.200;2023-03-05T07:00:33;2.40;99.90
8008;DHT22;4049;49.468;11.200;2023-03-05T07:02:59;2.30;99.90
8008;DHT22;4049;49.468;11.200;2023-03-05T07:05:26;2.30;99.90
8008;DHT22;4049;49.468;11.200;2023-03-05T07:07:53;2.30;99.90
8008;DHT22;4049;49.468;11.200;2023-03-05T07:10:20;2.30;99.90
8008;DHT22;4049;49.468;11.200;2023-03-05T07:12:47;2.40;99.90
8008;DHT22;4049;49.468;11.200;2023-03-05T07:15:15;2.30;99.90
8008;DHT22;4049;49.468;11.200;2023-03-05T07:17:42;2.40;99.90
8008;DHT22;4049;49.468;11.200;2023-03-05T07:20:09;2.30;99.90
8008;DHT22;4049;49.468;11.200;2023-03-05T07:22:37;2.30;99.90
8008;DHT22;4049;49.468;11.200;2023-03-05T07:25:04;2.30;99.90
8008;DHT22;4049;49.468;11.200;2023-03-05T07:27:34;2.30;99.90
8008;DHT22;4049;49.468;11.200;2023-03-05T07:30:01;2.30;99.90
8008;DHT22;4049;49.468;11.200;2023-03-05T07:32:29;2.40;99.90
8008;DHT22;4049;49.468;11.200;2023-03-05T07:34:56;2.40;99.90
8008;DHT22;4049;49.468;11.200;2023-03-05T07:37:22;2.40;99.90
8008;DHT22;4049;49.468;11.200;2023-03-05T07:39:49;2.40;99.90
8008;DHT22;4049;49.468;11.200;2023-03-05T07:42:16;2.50;99.90
8008;DHT22;4049;49.468;11.200;2023-03-05T07:44:43;2.50;99.90
8008;DHT22;4049;49.468;11.200;2023-03-05T07:47:10;2.50;99.90
8008;DHT22;4049;49.468;11.200;2023-03-05T07:49:38;2.60;99.90
8008;DHT22;4049;49.468;11.200;2023-03-05T07:52:06;2.60;99.90
8008;DHT22;4049;49.468;11.200;2023-03-05T07:54:32;2.70;99.90
8008;DHT22;4049;49.468;11.200;2023-03-05T07:57:02;2.70;99.90
8008;DHT22;4049;49.468;11.200;2023-03-05T07:59:29;2.80;99.90
8008;DHT22;4049;49.468;11.200;2023-03-05T08:01:56;2.90;99.90
8008;DHT22;4049;49.468;11.200;2023-03-05T08:04:23;2.90;99.90
8008;DHT22;4049;49.468;11.200;2023-03-05T08:06:51;3.00;99.90
8008;DHT22;4049;49.468;11.200;2023-03-05T08:09:19;3.10;99.90
8008;DHT22;4049;49.468;11.200;2023-03-05T08:11:46;3.10;99.90
8008;DHT22;4049;49.468;11.200;2023-03-05T08:14:13;3.10;99.90
8008;DHT22;4049;49.468;11.200;2023-03-05T08:16:40;3.20;99.90
8008;DHT22;4049;49.468;11.200;2023-03-05T08:19:07;3.20;99.90
8008;DHT22;4049;49.468;11.200;2023-03-05T08:21:34;3.20;99.90
8008;DHT22;4049;49.468;11.200;2023-03-05T08:24:05;3.30;99.90
8008;DHT22;4049;49.468;11.200;2023-03-05T08:26:34;3.30;99.90
8008;DHT22;4049;49.468;11.200;2023-03-05T08:29:02;3.40;99.90
8008;DHT22;4049;49.468;11.200;2023-03-05T08:31:29;3.30;99.90
8008;DHT22;4049;49.468;11.200;2023-03-05T08:33:58;3.30;99.90
8008;DHT22;4049;49.468;11.200;2023-03-05T08:36:25;3.40;99.90
8008;DHT22;4049;49.468;11.200;2023-03-05T08:38:51;3.40;99.90
8008;DHT22;4049;49.468;11.200;2023-03-05T08:41:19;3.40;99.90
8008;DHT22;4049;49.468;11.200;2023-03-05T08:43:46;3.40;99.90
8008;DHT22;4049;49.468;11.200;2023-03-05T08:46:14;3.50;99.90
8008;DHT22;4049;49.468;11.200;2023-03-05T08:48:41;3.50;99.90
8008;DHT22;4049;49.468;11.200;2023-03-05T08:51:10;3.50;99.90
8008;DHT22;4049;49.468;11.200;2023-03-05T08:53:38;3.40;99.90
8008;DHT22;4049;49.468;11.200;2023-03-05T08:56:05;3.50;99.90
8008;DHT22;4049;49.468;11.200;2023-03-05T08:58:34;3.50;99.90
8008;DHT22;4049;49.468;11.200;2023-03-05T09:01:00;3.50;99.90
8008;DHT22;4049;49.468;11.200;2023-03-05T09:03:27;3.50;99.90
8008;DHT22;4049;49.468;11.200;2023-03-05T09:05:58;3.50;99.90
8008;DHT22;4049;49.468;11.200;2023-03-05T09:08:26;3.50;99.90
8008;DHT22;4049;49.468;11.200;2023-03-05T09:10:54;3.50;99.90
8008;DHT22;4049;49.468;11.200;2023-03-05T09:13:20;3.60;99.90
8008;DHT22;4049;49.468;11.200;2023-03-05T09:15:54;3.60;99.90
8008;DHT22;4049;49.468;11.200;2023-03-05T09:18:21;3.60;99.90
8008;DHT22;4049;49.468;11.200;2023-03-05T09:20:48;3.60;99.90
8008;DHT22;4049;49.468;11.200;2023-03-05T09:23:15;3.70;99.90
8008;DHT22;4049;49.468;11.200;2023-03-05T09:25:42;3.60;99.90
8008;DHT22;4049;49.468;11.200;2023-03-05T09:28:09;3.60;99.90
8008;DHT22;4049;49.468;11.200;2023-03-05T09:30:36;3.60;99.90
8008;DHT22;4049;49.468;11.200;2023-03-05T09:33:04;3.60;99.90
8008;DHT22;4049;49.468;11.200;2023-03-05T09:35:34;3.60;99.90
8008;DHT22;4049;49.468;11.200;2023-03-05T09:38:01;3.60;99.90
8008;DHT22;4049;49.468;11.200;2023-03-05T09:40:31;3.60;99.90
8008;DHT22;4049;49.468;11.200;2023-03-05T09:43:07;3.60;99.90
8008;DHT22;4049;49.468;11.200;2023-03-05T09:45:41;3.60;99.90
8008;DHT22;4049;49.468;11.200;2023-03-05T09:48:17;3.60;99.90
8008;DHT22;4049;49.468;11.200;2023-03-05T09:50:49;3.60;99.90
8008;DHT22;4049;49.468;11.200;2023-03-05T09:53:30;3.60;99.90
8008;DHT22;4049;49.468;11.200;2023-03-05T09:56:03;3.50;99.90
8008;DHT22;4049;49.468;11.200;2023-03-05T09:58:35;3.50;99.90
8008;DHT22;4049;49.468;11.200;2023-03-05T10:01:06;3.50;99.90
8008;DHT22;4049;49.468;11.200;2023-03-05T10:03:43;3.40;99.90
8008;DHT22;4049;49.468;11.200;2023-03-05T10:06:19;3.40;99.90
8008;DHT22;4049;49.468;11.200;2023-03-05T10:08:52;3.40;99.90
8008;DHT22;4049;49.468;11.200;2023-03-05T10:11:39;3.30;99.90
8008;DHT22;4049;49.468;11.200;2023-03-05T10:14:13;3.30;99.90
8008;DHT22;4049;49.468;11.200;2023-03-05T10:16:55;3.30;99.90
8008;DHT22;4049;49.468;11.200;2023-03-05T10:19:43;3.30;99.90
8008;DHT22;4049;49.468;11.200;2023-03-05T10:22:18;3.30;99.90
8008;DHT22;4049;49.468;11.200;2023-03-05T10:24:59;3.30;99.90
8008;DHT22;4049;49.468;11.200;2023-03-05T10:27:39;3.30;99.90
8008;DHT22;4049;49.468;11.200;2023-03-05T10:30:28;3.30;99.90
8008;DHT22;4049;49.468;11.200;2023-03-05T10:33:05;3.30;99.90
8008;DHT22;4049;49.468;11.200;2023-03-05T10:35:48;3.30;99.90
8008;DHT22;4049;49.468;11.200;2023-03-05T10:38:38;3.30;99.90
8008;DHT22;4049;49.468;11.200;2023-03-05T10:41:15;3.40;99.90
8008;DHT22;4049;49.468;11.200;2023-03-05T10:43:47;3.40;99.90
8008;DHT22;4049;49.468;11.200;2023-03-05T10:46:20;3.40;99.90
8008;DHT22;4049;49.468;11.200;2023-03-05T10:48:50;3.40;99.90
8008;DHT22;4049;49.468;11.200;2023-03-05T10:51:21;3.40;99.90
8008;DHT22;4049;49.468;11.200;2023-03-05T10:53:55;3.50;99.90
8008;DHT22;4049;49.468;11.200;2023-03-05T10:56:25;3.50;99.90
8008;DHT22;4049;49.468;11.200;2023-03-05T10:58:53;3.60;99.90
8008;DHT22;4049;49.468;11.200;2023-03-05T11:01:22;3.60;99.90
8008;DHT22;4049;49.468;11.200;2023-03-05T11:03:53;3.60;99.90
8008;DHT22;4049;49.468;11.200;2023-03-05T11:06:34;3.60;99.90
8008;DHT22;4049;49.468;11.200;2023-03-05T11:09:22;3.70;99.90
8008;DHT22;4049;49.468;11.200;2023-03-05T11:12:05;3.70;99.90
8008;DHT22;4049;49.468;11.200;2023-03-05T11:14:38;3.70;99.90
8008;DHT22;4049;49.468;11.200;2023-03-05T11:17:24;3.70;99.90
8008;DHT22;4049;49.468;11.200;2023-03-05T11:19:53;3.80;99.90
8008;DHT22;4049;49.468;11.200;2023-03-05T11:22:22;3.90;99.90
8008;DHT22;4049;49.468;11.200;2023-03-05T11:25:04;3.90;99.90
8008;DHT22;4049;49.468;11.200;2023-03-05T11:27:34;3.90;99.90
8008;DHT22;4049;49.468;11.200;2023-03-05T11:30:02;4.00;99.90
8008;DHT22;4049;49.468;11.200;2023-03-05T11:32:30;4.00;99.90
8008;DHT22;4049;49.468;11.200;2023-03-05T11:34:57;4.00;99.90
8008;DHT22;4049;49.468;11.200;2023-03-05T11:37:27;4.00;99.90
8008;DHT22;4049;49.468;11.200;2023-03-05T11:40:28;4.00;99.90
8008;DHT22;4049;49.468;11.200;2023-03-05T11:42:58;3.90;99.90
8008;DHT22;4049;49.468;11.200;2023-03-05T11:45:26;3.90;99.90
8008;DHT22;4049;49.468;11.200;2023-03-05T11:47:56;3.90;99.90
8008;DHT22;4049;49.468;11.200;2023-03-05T11:50:25;3.80;99.90
8008;DHT22;4049;49.468;11.200;2023-03-05T11:52:56;3.80;99.90
8008;DHT22;4049;49.468;11.200;2023-03-05T11:55:27;3.80;99.90
8008;DHT22;4049;49.468;11.200;2023-03-05T11:58:03;3.80;99.90
8008;DHT22;4049;49.468;11.200;2023-03-05T12:00:38;3.70;99.90
8008;DHT22;4049;49.468;11.200;2023-03-05T12:03:11;3.80;99.90
8008;DHT22;4049;49.468;11.200;2023-03-05T12:05:42;3.80;99.90
8008;DHT22;4049;49.468;11.200;2023-03-05T12:08:13;3.80;99.90
8008;DHT22;4049;49.468;11.200;2023-03-05T12:10:41;3.90;99.90
8008;DHT22;4049;49.468;11.200;2023-03-05T12:13:13;3.90;99.90
8008;DHT22;4049;49.468;11.200;2023-03-05T12:15:52;3.90;99.90
8008;DHT22;4049;49.468;11.200;2023-03-05T12:18:35;4.00;99.90
8008;DHT22;4049;49.468;11.200;2023-03-05T12:21:05;4.10;99.90
8008;DHT22;4049;49.468;11.200;2023-03-05T12:23:48;4.10;99.90
8008;DHT22;4049;49.468;11.200;2023-03-05T12:26:16;4.20;99.90
8008;DHT22;4049;49.468;11.200;2023-03-05T12:28:54;4.20;99.90
8008;DHT22;4049;49.468;11.200;2023-03-05T12:31:28;4.20;99.90
8008;DHT22;4049;49.468;11.200;2023-03-05T12:37:08;4.20;99.90
8008;DHT22;4049;49.468;11.200;2023-03-05T12:39:49;4.20;99.90
8008;DHT22;4049;49.468;11.200;2023-03-05T12:45:29;4.10;99.90
8008;DHT22;4049;49.468;11.200;2023-03-05T12:50:57;4.10;99.90
8008;DHT22;4049;49.468;11.200;2023-03-05T12:53:24;4.10;99.90
8008;DHT22;4049;49.468;11.200;2023-03-05T12:55:57;4.20;99.90
8008;DHT22;4049;49.468;11.200;2023-03-05T12:58:34;4.10;99.90
8008;DHT22;4049;49.468;11.200;2023-03-05T13:01:12;4.20;99.90
8008;DHT22;4049;49.468;11.200;2023-03-05T13:03:44;4.10;99.90
8008;DHT22;4049;49.468;11.200;2023-03-05T13:06:24;4.20;99.90
8008;DHT22;4049;49.468;11.200;2023-03-05T13:08:56;4.20;99.90
8008;DHT22;4049;49.468;11.200;2023-03-05T13:11:25;4.20;99.90
8008;DHT22;4049;49.468;11.200;2023-03-05T13:13:53;4.20;99.90
8008;DHT22;4049;49.468;11.200;2023-03-05T13:16:23;4.20;99.90
8008;DHT22;4049;49.468;11.200;2023-03-05T13:18:52;4.20;99.90
8008;DHT22;4049;49.468;11.200;2023-03-05T13:21:23;4.20;99.90
8008;DHT22;4049;49.468;11.200;2023-03-05T13:23:52;4.20;99.90
8008;DHT22;4049;49.468;11.200;2023-03-05T13:26:25;4.10;99.90
8008;DHT22;4049;49.468;11.200;2023-03-05T13:29:07;4.20;99.90
8008;DHT22;4049;49.468;11.200;2023-03-05T13:31:35;4.10;99.90
8008;DHT22;4049;49.468;11.200;2023-03-05T13:34:09;4.10;99.90
8008;DHT22;4049;49.468;11.200;2023-03-05T13:36:37;4.10;99.90
8008;DHT22;4049;49.468;11.200;2023-03-05T13:39:05;4.10;99.90
8008;DHT22;4049;49.468;11.200;2023-03-05T13:41:33;4.10;99.90
8008;DHT22;4049;49.468;11.200;2023-03-05T13:44:01;4.10;99.90
8008;DHT22;4049;49.468;11.200;2023-03-05T13:46:30;4.10;99.90
8008;DHT22;4049;49.468;11.200;2023-03-05T13:49:16;4.10;99.90
8008;DHT22;4049;49.468;11.200;2023-03-05T13:51:45;4.10;99.90
8008;DHT22;4049;49.468;11.200;2023-03-05T13:54:13;4.10;99.90
8008;DHT22;4049;49.468;11.200;2023-03-05T13:56:50;4.10;99.90
8008;DHT22;4049;49.468;11.200;2023-03-05T13:59:19;4.10;99.90
8008;DHT22;4049;49.468;11.200;2023-03-05T14:01:46;4.20;99.90
8008;DHT22;4049;49.468;11.200;2023-03-05T14:04:20;4.20;99.90
8008;DHT22;4049;49.468;11.200;2023-03-05T14:06:48;4.20;99.90
8008;DHT22;4049;49.468;11.200;2023-03-05T14:09:19;4.20;99.90
8008;DHT22;4049;49.468;11.200;2023-03-05T14:11:58;4.20;99.90
8008;DHT22;4049;49.468;11.200;2023-03-05T14:14:27;4.20;99.90
8008;DHT22;4049;49.468;11.200;2023-03-05T14:16:54;4.20;99.90
8008;DHT22;4049;49.468;11.200;2023-03-05T14:19:33;4.30;99.90
8008;DHT22;4049;49.468;11.200;2023-03-05T14:22:00;4.30;99.90
8008;DHT22;4049;49.468;11.200;2023-03-05T14:24:27;4.30;99.90
8008;DHT22;4049;49.468;11.200;2023-03-05T14:27:00;4.30;99.90
8008;DHT22;4049;49.468;11.200;2023-03-05T14:29:30;4.20;99.90
8008;DHT22;4049;49.468;11.200;2023-03-05T14:32:00;4.20;99.90
8008;DHT22;4049;49.468;11.200;2023-03-05T14:34:30;4.20;99.90
8008;DHT22;4049;49.468;11.200;2023-03-05T14:37:00;4.20;99.90
8008;DHT22;4049;49.468;11.200;2023-03-05T14:39:30;4.20;99.90
8008;DHT22;4049;49.468;11.200;2023-03-05T14:42:27;4.10;99.90
8008;DHT22;4049;49.468;11.200;2023-03-05T14:44:56;4.10;99.90
8008;DHT22;4049;49.468;11.200;2023-03-05T14:47:24;4.10;99.90
8008;DHT22;4049;49.468;11.200;2023-03-05T14:49:51;4.10;99.90
8008;DHT22;4049;49.468;11.200;2023-03-05T14:52:20;4.00;99.90
8008;DHT22;4049;49.468;11.200;2023-03-05T14:54:47;4.00;99.90
8008;DHT22;4049;49.468;11.200;2023-03-05T14:57:19;4.00;99.90
8008;DHT22;4049;49.468;11.200;2023-03-05T14:59:46;3.90;99.90
8008;DHT22;4049;49.468;11.200;2023-03-05T15:02:15;3.90;99.90
8008;DHT22;4049;49.468;11.200;2023-03-05T15:04:42;3.80;99.90
8008;DHT22;4049;49.468;11.200;2023-03-05T15:07:18;3.90;99.90
8008;DHT22;4049;49.468;11.200;2023-03-05T15:09:46;3.80;99.90
8008;DHT22;4049;49.468;11.200;2023-03-05T15:12:14;3.80;99.90
8008;DHT22;4049;49.468;11.200;2023-03-05T15:14:42;3.80;99.90
8008;DHT22;4049;49.468;11.200;2023-03-05T15:17:15;3.80;99.90
8008;DHT22;4049;49.468;11.200;2023-03-05T15:19:43;3.70;99.90
8008;DHT22;4049;49.468;11.200;2023-03-05T15:22:12;3.70;99.90
8008;DHT22;4049;49.468;11.200;2023-03-05T15:24:39;3.70;99.90
8008;DHT22;4049;49.468;11.200;2023-03-05T15:27:06;3.70;99.90
8008;DHT22;4049;49.468;11.200;2023-03-05T15:29:33;3.70;99.90
8008;DHT22;4049;49.468;11.200;2023-03-05T15:32:01;3.70;99.90
8008;DHT22;4049;49.468;11.200;2023-03-05T15:34:30;3.70;99.90
8008;DHT22;4049;49.468;11.200;2023-03-05T15:36:59;3.70;99.90
8008;DHT22;4049;49.468;11.200;2023-03-05T15:39:26;3.70;99.90
8008;DHT22;4049;49.468;11.200;2023-03-05T15:41:53;3.70;99.90
8008;DHT22;4049;49.468;11.200;2023-03-05T15:44:20;3.70;99.90
8008;DHT22;4049;49.468;11.200;2023-03-05T15:46:47;3.70;99.90
8008;DHT22;4049;49.468;11.200;2023-03-05T15:49:15;3.70;99.90
8008;DHT22;4049;49.468;11.200;2023-03-05T15:51:42;3.60;99.90
8008;DHT22;4049;49.468;11.200;2023-03-05T15:54:09;3.60;99.90
8008;DHT22;4049;49.468;11.200;2023-03-05T15:56:36;3.60;99.90
8008;DHT22;4049;49.468;11.200;2023-03-05T15:59:03;3.60;99.90
8008;DHT22;4049;49.468;11.200;2023-03-05T16:01:30;3.60;99.90
8008;DHT22;4049;49.468;11.200;2023-03-05T16:03:57;3.60;99.90
8008;DHT22;4049;49.468;11.200;2023-03-05T16:06:25;3.60;99.90
8008;DHT22;4049;49.468;11.200;2023-03-05T16:08:56;3.60;99.90
8008;DHT22;4049;49.468;11.200;2023-03-05T16:11:24;3.60;99.90
8008;DHT22;4049;49.468;11.200;2023-03-05T16:13:52;3.50;99.90
8008;DHT22;4049;49.468;11.200;2023-03-05T16:16:19;3.50;99.90
8008;DHT22;4049;49.468;11.200;2023-03-05T16:18:48;3.50;99.90
8008;DHT22;4049;49.468;11.200;2023-03-05T16:21:15;3.50;99.90
8008;DHT22;4049;49.468;11.200;2023-03-05T16:23:43;3.50;99.90
8008;DHT22;4049;49.468;11.200;2023-03-05T16:26:10;3.50;99.90